Terminal Aerodrome Forecast
Issued by NWS Austin/San Antonio, TX

Home | Current Version | Previous Version | Text Only | Print | Product List | Glossary On
Versions: 1 2 3 4 5 6 7 8 9 10 11 12 13 14 15 16 17
000
FTUS44 KEWX 231100
TAFSAT
TAF
KSAT 231128Z 2312/2418 05005KT P6SM BKN035 BKN250
     FM231500 07008KT P6SM FEW060 SCT250
     FM240600 05004KT P6SM SCT050 SCT250=

USA.gov is the U.S. government's official web portal to all federal, state and local government web resources and services.